FDX134 KMEM-CYWG
Flight info
| Callsign | FDX134 |
|---|---|
| Flight time | 2h 15m |
| Altitude | 34000 |
| Route | JTEEE5 ODATE DCT FTZ DCT CID DCT RST DCT KP09G DCT BIPKU NORAK6 |
| Aircraft | A306/H-SDE3FGHIRWY/LB1 |
Departure
| Time | 2026-05-06 16:35 |
|---|---|
| Airport | Memphis International Airport (KMEM) |
Arrival
| Time | 2026-05-06 18:50 |
|---|---|
| Airport | Winnipeg / James Armstrong Richardson International Airport (CYWG) |
| Time | Latitude | Longitude | Altitude | Speed | Heading |
|---|---|---|---|---|---|
| 2026-05-06 16:12 | 35.05957 | -89.95642 | 337 ft | 0 kts | 181° |
| 2026-05-06 16:28 | 35.05966 | -89.95641 | 332 ft | 4 kts | 181° |
| 2026-05-06 16:28 | 35.05993 | -89.95641 | 337 ft | 4 kts | 181° |
| 2026-05-06 16:28 | 35.06014 | -89.95641 | 331 ft | 4 kts | 156° |
| 2026-05-06 16:29 | 35.06026 | -89.95660 | 334 ft | 3 kts | 92° |
| 2026-05-06 16:29 | 35.06027 | -89.95687 | 337 ft | 1 kts | 92° |
| 2026-05-06 16:32 | 35.06026 | -89.95649 | 332 ft | 8 kts | 91° |
| 2026-05-06 16:32 | 35.06015 | -89.95565 | 335 ft | 11 kts | 123° |
| 2026-05-06 16:32 | 35.05951 | -89.95548 | 332 ft | 10 kts | 182° |
| 2026-05-06 16:33 | 35.05880 | -89.95572 | 333 ft | 12 kts | 199° |
| 2026-05-06 16:33 | 35.05802 | -89.95613 | 334 ft | 12 kts | 209° |
| 2026-05-06 16:33 | 35.05781 | -89.95682 | 339 ft | 0 kts | 272° |
| 2026-05-06 16:34 | 35.05782 | -89.95703 | 334 ft | 15 kts | 271° |
| 2026-05-06 16:34 | 35.05794 | -89.96127 | 334 ft | 84 kts | 272° |
| 2026-05-06 16:34 | 35.05820 | -89.97090 | 332 ft | 141 kts | 272° |
| 2026-05-06 16:34 | 35.05863 | -89.98413 | 693 ft | 164 kts | 274° |
| 2026-05-06 16:35 | 35.05935 | -89.99871 | 1329 ft | 176 kts | 275° |
| 2026-05-06 16:35 | 35.05992 | -90.01352 | 2163 ft | 175 kts | 272° |
| 2026-05-06 16:35 | 35.06004 | -90.02928 | 2629 ft | 198 kts | 271° |
| 2026-05-06 16:35 | 35.06099 | -90.04710 | 2873 ft | 230 kts | 285° |
| 2026-05-06 16:36 | 35.07035 | -90.06368 | 2867 ft | 252 kts | 324° |
| 2026-05-06 16:36 | 35.08736 | -90.06996 | 3222 ft | 266 kts | 1° |
| 2026-05-06 16:36 | 35.10572 | -90.06705 | 4206 ft | 264 kts | 8° |
| 2026-05-06 16:36 | 35.12398 | -90.06379 | 5135 ft | 266 kts | 5° |
| 2026-05-06 16:37 | 35.14264 | -90.06174 | 5941 ft | 274 kts | 4° |
| 2026-05-06 16:37 | 35.16192 | -90.06001 | 6840 ft | 280 kts | 1° |
| 2026-05-06 16:37 | 35.18147 | -90.05869 | 7737 ft | 284 kts | 1° |
| 2026-05-06 16:37 | 35.20139 | -90.05742 | 8623 ft | 289 kts | 0° |
| 2026-05-06 16:38 | 35.22136 | -90.05618 | 9480 ft | 293 kts | 360° |
| 2026-05-06 16:38 | 35.24192 | -90.05510 | 10281 ft | 299 kts | 359° |
| 2026-05-06 16:38 | 35.26342 | -90.05410 | 10680 ft | 320 kts | 359° |
| 2026-05-06 16:38 | 35.28639 | -90.05308 | 10994 ft | 340 kts | 359° |
| 2026-05-06 16:39 | 35.31063 | -90.05194 | 11291 ft | 358 kts | 359° |
| 2026-05-06 16:39 | 35.33607 | -90.05067 | 11576 ft | 373 kts | 359° |
| 2026-05-06 16:39 | 35.36262 | -90.04935 | 11849 ft | 388 kts | 359° |
| 2026-05-06 16:39 | 35.38994 | -90.04794 | 12249 ft | 397 kts | 359° |
| 2026-05-06 16:40 | 35.41771 | -90.04653 | 12760 ft | 402 kts | 359° |
| 2026-05-06 16:40 | 35.44581 | -90.04512 | 13344 ft | 405 kts | 359° |
| 2026-05-06 16:40 | 35.47405 | -90.04371 | 13892 ft | 408 kts | 359° |
| 2026-05-06 16:40 | 35.50255 | -90.04229 | 14426 ft | 412 kts | 358° |
| 2026-05-06 16:41 | 35.53133 | -90.04089 | 14980 ft | 415 kts | 358° |
| 2026-05-06 16:41 | 35.56033 | -90.03951 | 15527 ft | 418 kts | 358° |
| 2026-05-06 16:41 | 35.58956 | -90.03803 | 16088 ft | 421 kts | 358° |
| 2026-05-06 16:41 | 35.61887 | -90.03659 | 16634 ft | 423 kts | 357° |
| 2026-05-06 16:42 | 35.64830 | -90.03739 | 17147 ft | 423 kts | 352° |
| 2026-05-06 16:42 | 35.67772 | -90.03979 | 17638 ft | 425 kts | 351° |
| 2026-05-06 16:42 | 35.70736 | -90.04242 | 18110 ft | 428 kts | 351° |
| 2026-05-06 16:42 | 35.73715 | -90.04505 | 18586 ft | 430 kts | 351° |
| 2026-05-06 16:43 | 35.76675 | -90.04781 | 19014 ft | 432 kts | 349° |
| 2026-05-06 16:43 | 35.79642 | -90.05339 | 19437 ft | 432 kts | 344° |
| 2026-05-06 16:43 | 35.82583 | -90.06115 | 19847 ft | 433 kts | 341° |
| 2026-05-06 16:43 | 35.85511 | -90.06998 | 20256 ft | 435 kts | 340° |
| 2026-05-06 16:44 | 35.88450 | -90.07929 | 20647 ft | 437 kts | 340° |
| 2026-05-06 16:44 | 35.91404 | -90.08877 | 21024 ft | 440 kts | 340° |
| 2026-05-06 16:44 | 35.94371 | -90.09820 | 21398 ft | 442 kts | 340° |
| 2026-05-06 16:44 | 35.97361 | -90.10758 | 21758 ft | 445 kts | 340° |
| 2026-05-06 16:45 | 36.00371 | -90.11691 | 22097 ft | 447 kts | 340° |
| 2026-05-06 16:45 | 36.03403 | -90.12624 | 22435 ft | 450 kts | 340° |
| 2026-05-06 16:45 | 36.05417 | -90.13241 | 22665 ft | 451 kts | 340° |
| 2026-05-06 16:45 | 36.09508 | -90.14490 | 23073 ft | 454 kts | 340° |
| 2026-05-06 16:46 | 36.11542 | -90.15114 | 23282 ft | 456 kts | 340° |
| 2026-05-06 16:46 | 36.14626 | -90.16060 | 23583 ft | 458 kts | 340° |
| 2026-05-06 16:46 | 36.17725 | -90.17013 | 23861 ft | 460 kts | 340° |
| 2026-05-06 16:46 | 36.20841 | -90.17973 | 24147 ft | 462 kts | 340° |
| 2026-05-06 16:47 | 36.23974 | -90.18938 | 24407 ft | 464 kts | 340° |
| 2026-05-06 16:47 | 36.27114 | -90.19905 | 24669 ft | 466 kts | 340° |
| 2026-05-06 16:47 | 36.30265 | -90.20876 | 24943 ft | 467 kts | 340° |
| 2026-05-06 16:47 | 36.33427 | -90.21851 | 25205 ft | 469 kts | 340° |
| 2026-05-06 16:48 | 36.36602 | -90.22831 | 25465 ft | 471 kts | 340° |
| 2026-05-06 16:48 | 36.39786 | -90.23817 | 25686 ft | 473 kts | 340° |
| 2026-05-06 16:48 | 36.42989 | -90.24811 | 25893 ft | 475 kts | 340° |
| 2026-05-06 16:48 | 36.46196 | -90.25807 | 26134 ft | 476 kts | 340° |
| 2026-05-06 16:49 | 36.49420 | -90.26805 | 26358 ft | 478 kts | 340° |
| 2026-05-06 16:49 | 36.52647 | -90.27803 | 26573 ft | 479 kts | 340° |
| 2026-05-06 16:49 | 36.55847 | -90.28795 | 26780 ft | 480 kts | 340° |
| 2026-05-06 16:49 | 36.59096 | -90.29802 | 26982 ft | 482 kts | 340° |
| 2026-05-06 16:50 | 36.62347 | -90.30812 | 27260 ft | 481 kts | 340° |
| 2026-05-06 16:50 | 36.65597 | -90.31820 | 27596 ft | 480 kts | 340° |
| 2026-05-06 16:50 | 36.68831 | -90.32827 | 27896 ft | 479 kts | 340° |
| 2026-05-06 16:50 | 36.72060 | -90.33834 | 28197 ft | 478 kts | 339° |
| 2026-05-06 16:51 | 36.75287 | -90.34842 | 28495 ft | 477 kts | 339° |
| 2026-05-06 16:51 | 36.78506 | -90.35848 | 28797 ft | 477 kts | 339° |
| 2026-05-06 16:51 | 36.81720 | -90.36853 | 29109 ft | 475 kts | 339° |
| 2026-05-06 16:51 | 36.84926 | -90.37856 | 29402 ft | 475 kts | 339° |
| 2026-05-06 16:52 | 36.88138 | -90.38861 | 29699 ft | 474 kts | 339° |
| 2026-05-06 16:52 | 36.91332 | -90.39863 | 29999 ft | 473 kts | 339° |
| 2026-05-06 16:52 | 36.94523 | -90.40866 | 30287 ft | 472 kts | 339° |
| 2026-05-06 16:52 | 36.97710 | -90.41867 | 30588 ft | 472 kts | 339° |
| 2026-05-06 16:53 | 37.00892 | -90.42866 | 30906 ft | 471 kts | 339° |
| 2026-05-06 16:53 | 37.04064 | -90.43864 | 31231 ft | 470 kts | 338° |
| 2026-05-06 16:53 | 37.07232 | -90.44861 | 31517 ft | 469 kts | 338° |
| 2026-05-06 16:53 | 37.10397 | -90.45859 | 31788 ft | 468 kts | 338° |
| 2026-05-06 16:54 | 37.13556 | -90.46856 | 32067 ft | 468 kts | 338° |
| 2026-05-06 16:54 | 37.16716 | -90.47854 | 32314 ft | 468 kts | 338° |
| 2026-05-06 16:54 | 37.19872 | -90.48852 | 32584 ft | 468 kts | 338° |
| 2026-05-06 16:54 | 37.23031 | -90.49852 | 32859 ft | 467 kts | 338° |
| 2026-05-06 16:55 | 37.26140 | -90.50836 | 33102 ft | 468 kts | 338° |
| 2026-05-06 16:55 | 37.29296 | -90.51835 | 33345 ft | 468 kts | 338° |
| 2026-05-06 16:55 | 37.32449 | -90.52837 | 33627 ft | 467 kts | 337° |
| 2026-05-06 16:55 | 37.35593 | -90.53836 | 33913 ft | 466 kts | 337° |
| 2026-05-06 16:56 | 37.38736 | -90.54833 | 34065 ft | 466 kts | 337° |
| 2026-05-06 16:56 | 37.45015 | -90.56826 | 34081 ft | 464 kts | 337° |
| 2026-05-06 16:57 | 37.51272 | -90.58818 | 34076 ft | 464 kts | 337° |
| 2026-05-06 16:57 | 37.57538 | -90.60822 | 34080 ft | 464 kts | 337° |
| 2026-05-06 16:58 | 37.63790 | -90.62814 | 34081 ft | 464 kts | 337° |
| 2026-05-06 16:58 | 37.70047 | -90.64817 | 34076 ft | 464 kts | 337° |
| 2026-05-06 16:59 | 37.76303 | -90.66830 | 34081 ft | 464 kts | 337° |
| 2026-05-06 16:59 | 37.82520 | -90.68831 | 34077 ft | 464 kts | 337° |
| 2026-05-06 17:00 | 37.88775 | -90.70842 | 34082 ft | 464 kts | 337° |
| 2026-05-06 17:00 | 37.95028 | -90.72854 | 34080 ft | 464 kts | 337° |
| 2026-05-06 17:01 | 38.01279 | -90.74873 | 34094 ft | 464 kts | 337° |
| 2026-05-06 17:01 | 38.07533 | -90.76902 | 34089 ft | 464 kts | 337° |
| 2026-05-06 17:02 | 38.13784 | -90.78927 | 34098 ft | 463 kts | 336° |
| 2026-05-06 17:02 | 38.20026 | -90.80950 | 34099 ft | 463 kts | 336° |
| 2026-05-06 17:03 | 38.26270 | -90.82981 | 34099 ft | 463 kts | 336° |
| 2026-05-06 17:03 | 38.32507 | -90.85012 | 34098 ft | 463 kts | 336° |
| 2026-05-06 17:04 | 38.38747 | -90.87048 | 34098 ft | 463 kts | 336° |
| 2026-05-06 17:04 | 38.44987 | -90.89084 | 34099 ft | 463 kts | 336° |
| 2026-05-06 17:05 | 38.51220 | -90.91129 | 34099 ft | 462 kts | 336° |
| 2026-05-06 17:05 | 38.57449 | -90.93176 | 34100 ft | 462 kts | 336° |
| 2026-05-06 17:06 | 38.63633 | -90.95213 | 34097 ft | 461 kts | 336° |
| 2026-05-06 17:06 | 38.69860 | -90.97242 | 34098 ft | 462 kts | 338° |
| 2026-05-06 17:07 | 38.76188 | -90.98908 | 34099 ft | 466 kts | 340° |
| 2026-05-06 17:07 | 38.82575 | -91.00389 | 34099 ft | 466 kts | 341° |
| 2026-05-06 17:08 | 38.88954 | -91.01892 | 34098 ft | 466 kts | 340° |
| 2026-05-06 17:08 | 38.95324 | -91.03432 | 34098 ft | 465 kts | 340° |
| 2026-05-06 17:09 | 39.01683 | -91.04991 | 34108 ft | 465 kts | 340° |
| 2026-05-06 17:09 | 39.08039 | -91.06557 | 34107 ft | 464 kts | 340° |
| 2026-05-06 17:10 | 39.14378 | -91.08118 | 34108 ft | 464 kts | 340° |
| 2026-05-06 17:10 | 39.20716 | -91.09682 | 34107 ft | 464 kts | 340° |
| 2026-05-06 17:11 | 39.27010 | -91.11241 | 34107 ft | 464 kts | 340° |
| 2026-05-06 17:11 | 39.33350 | -91.12811 | 34108 ft | 464 kts | 340° |
| 2026-05-06 17:12 | 39.39690 | -91.14382 | 34108 ft | 464 kts | 340° |
| 2026-05-06 17:12 | 39.46024 | -91.15957 | 34108 ft | 463 kts | 340° |
| 2026-05-06 17:13 | 39.52356 | -91.17531 | 34113 ft | 464 kts | 340° |
| 2026-05-06 17:13 | 39.58696 | -91.19110 | 34113 ft | 463 kts | 340° |
| 2026-05-06 17:14 | 39.65011 | -91.20687 | 34112 ft | 462 kts | 340° |
| 2026-05-06 17:14 | 39.71328 | -91.22267 | 34108 ft | 462 kts | 340° |
| 2026-05-06 17:15 | 39.77645 | -91.23852 | 34108 ft | 462 kts | 340° |
| 2026-05-06 17:15 | 39.83956 | -91.25439 | 34108 ft | 462 kts | 340° |
| 2026-05-06 17:16 | 39.90265 | -91.27028 | 34101 ft | 462 kts | 340° |
| 2026-05-06 17:16 | 39.96536 | -91.28612 | 34098 ft | 462 kts | 340° |
| 2026-05-06 17:17 | 40.02847 | -91.30207 | 34099 ft | 462 kts | 340° |
| 2026-05-06 17:17 | 40.09156 | -91.31795 | 34099 ft | 462 kts | 340° |
| 2026-05-06 17:18 | 40.15464 | -91.33396 | 34106 ft | 462 kts | 340° |
| 2026-05-06 17:18 | 40.21772 | -91.34999 | 34108 ft | 462 kts | 340° |
| 2026-05-06 17:19 | 40.28076 | -91.36609 | 34108 ft | 462 kts | 340° |
| 2026-05-06 17:19 | 40.34384 | -91.38223 | 34107 ft | 462 kts | 340° |
| 2026-05-06 17:20 | 40.40696 | -91.39829 | 34109 ft | 461 kts | 340° |
| 2026-05-06 17:20 | 40.46998 | -91.41434 | 34108 ft | 462 kts | 340° |
| 2026-05-06 17:21 | 40.53306 | -91.43048 | 34107 ft | 462 kts | 340° |
| 2026-05-06 17:21 | 40.59610 | -91.44674 | 34108 ft | 462 kts | 340° |
| 2026-05-06 17:22 | 40.65914 | -91.46302 | 34108 ft | 462 kts | 340° |
| 2026-05-06 17:22 | 40.72221 | -91.47926 | 34109 ft | 462 kts | 340° |
| 2026-05-06 17:23 | 40.78480 | -91.49544 | 34108 ft | 460 kts | 341° |
| 2026-05-06 17:23 | 40.84769 | -91.51179 | 34116 ft | 461 kts | 341° |
| 2026-05-06 17:24 | 40.91058 | -91.52809 | 34118 ft | 461 kts | 341° |
| 2026-05-06 17:24 | 40.97356 | -91.54447 | 34117 ft | 461 kts | 341° |
| 2026-05-06 17:25 | 41.03652 | -91.56087 | 34117 ft | 461 kts | 341° |
| 2026-05-06 17:25 | 41.09957 | -91.57730 | 34114 ft | 461 kts | 341° |
| 2026-05-06 17:26 | 41.16257 | -91.59372 | 34107 ft | 461 kts | 341° |
| 2026-05-06 17:26 | 41.22560 | -91.61026 | 34099 ft | 462 kts | 342° |
| 2026-05-06 17:27 | 41.28878 | -91.62686 | 34098 ft | 462 kts | 342° |
| 2026-05-06 17:27 | 41.35147 | -91.64330 | 34099 ft | 462 kts | 342° |
| 2026-05-06 17:28 | 41.41461 | -91.65996 | 34099 ft | 462 kts | 342° |
| 2026-05-06 17:28 | 41.47772 | -91.67665 | 34107 ft | 462 kts | 342° |
| 2026-05-06 17:29 | 41.54086 | -91.69338 | 34108 ft | 462 kts | 342° |
| 2026-05-06 17:29 | 41.60407 | -91.71015 | 34118 ft | 462 kts | 342° |
| 2026-05-06 17:30 | 41.66725 | -91.72693 | 34117 ft | 463 kts | 342° |
| 2026-05-06 17:30 | 41.73040 | -91.74373 | 34108 ft | 463 kts | 342° |
| 2026-05-06 17:31 | 41.79353 | -91.76057 | 34107 ft | 463 kts | 343° |
| 2026-05-06 17:31 | 41.85636 | -91.77738 | 34100 ft | 463 kts | 343° |
| 2026-05-06 17:32 | 41.91833 | -91.79872 | 34100 ft | 458 kts | 338° |
| 2026-05-06 17:32 | 41.96907 | -91.81921 | 34099 ft | 458 kts | 337° |
| 2026-05-06 17:33 | 42.02994 | -91.84457 | 34100 ft | 457 kts | 337° |
| 2026-05-06 17:33 | 42.09071 | -91.87009 | 34108 ft | 458 kts | 337° |
| 2026-05-06 17:34 | 42.15160 | -91.89558 | 34111 ft | 458 kts | 337° |
| 2026-05-06 17:34 | 42.21244 | -91.92106 | 34119 ft | 458 kts | 337° |
| 2026-05-06 17:35 | 42.27329 | -91.94660 | 34118 ft | 458 kts | 337° |
| 2026-05-06 17:35 | 42.33413 | -91.97218 | 34117 ft | 458 kts | 337° |
| 2026-05-06 17:36 | 42.42530 | -92.01060 | 34118 ft | 458 kts | 337° |
| 2026-05-06 17:36 | 42.48616 | -92.03633 | 34117 ft | 458 kts | 337° |
| 2026-05-06 17:37 | 42.54702 | -92.06205 | 34109 ft | 458 kts | 337° |
| 2026-05-06 17:37 | 42.60791 | -92.08785 | 34108 ft | 458 kts | 337° |
| 2026-05-06 17:38 | 42.66883 | -92.11376 | 34100 ft | 458 kts | 337° |
| 2026-05-06 17:38 | 42.72933 | -92.13953 | 34099 ft | 458 kts | 337° |
| 2026-05-06 17:39 | 42.79026 | -92.16552 | 34099 ft | 459 kts | 337° |
| 2026-05-06 17:39 | 42.85117 | -92.19157 | 34099 ft | 459 kts | 337° |
| 2026-05-06 17:40 | 42.91207 | -92.21767 | 34098 ft | 459 kts | 337° |
| 2026-05-06 17:40 | 42.97299 | -92.24385 | 34098 ft | 459 kts | 337° |
| 2026-05-06 17:41 | 43.03384 | -92.27007 | 34098 ft | 459 kts | 337° |
| 2026-05-06 17:41 | 43.09483 | -92.29640 | 34098 ft | 459 kts | 337° |
| 2026-05-06 17:42 | 43.15579 | -92.32269 | 34097 ft | 459 kts | 337° |
| 2026-05-06 17:42 | 43.21673 | -92.34903 | 34099 ft | 460 kts | 337° |
| 2026-05-06 17:43 | 43.27784 | -92.37557 | 34094 ft | 460 kts | 337° |
| 2026-05-06 17:43 | 43.33894 | -92.40212 | 34091 ft | 460 kts | 337° |
| 2026-05-06 17:44 | 43.40000 | -92.42871 | 34091 ft | 460 kts | 337° |
| 2026-05-06 17:44 | 43.46107 | -92.45540 | 34087 ft | 460 kts | 337° |
| 2026-05-06 17:45 | 43.52169 | -92.48203 | 34087 ft | 460 kts | 337° |
| 2026-05-06 17:45 | 43.58318 | -92.50895 | 34080 ft | 460 kts | 337° |
| 2026-05-06 17:46 | 43.64385 | -92.53560 | 34092 ft | 460 kts | 337° |
| 2026-05-06 17:46 | 43.70493 | -92.56253 | 34091 ft | 461 kts | 337° |
| 2026-05-06 17:47 | 43.76609 | -92.58954 | 34093 ft | 461 kts | 337° |
| 2026-05-06 17:47 | 43.82676 | -92.61772 | 34085 ft | 459 kts | 335° |
| 2026-05-06 17:48 | 43.88698 | -92.64757 | 34091 ft | 459 kts | 335° |
| 2026-05-06 17:48 | 43.94711 | -92.67758 | 34091 ft | 459 kts | 335° |
| 2026-05-06 17:49 | 44.00727 | -92.70748 | 34086 ft | 459 kts | 335° |
| 2026-05-06 17:49 | 44.06747 | -92.73729 | 34083 ft | 459 kts | 335° |
| 2026-05-06 17:50 | 44.12775 | -92.76722 | 34079 ft | 460 kts | 335° |
| 2026-05-06 17:50 | 44.18805 | -92.79720 | 34090 ft | 460 kts | 335° |
| 2026-05-06 17:51 | 44.24835 | -92.82724 | 34091 ft | 460 kts | 335° |
| 2026-05-06 17:51 | 44.30826 | -92.85724 | 34092 ft | 460 kts | 335° |
| 2026-05-06 17:52 | 44.36865 | -92.88744 | 34099 ft | 461 kts | 335° |
| 2026-05-06 17:52 | 44.42906 | -92.91777 | 34107 ft | 461 kts | 335° |
| 2026-05-06 17:53 | 44.48940 | -92.94815 | 34108 ft | 461 kts | 336° |
| 2026-05-06 17:53 | 44.54972 | -92.97855 | 34108 ft | 461 kts | 336° |
| 2026-05-06 17:54 | 44.61004 | -93.00904 | 34108 ft | 461 kts | 336° |
| 2026-05-06 17:54 | 44.67032 | -93.03960 | 34098 ft | 461 kts | 336° |
| 2026-05-06 17:55 | 44.73069 | -93.07023 | 34099 ft | 461 kts | 336° |
| 2026-05-06 17:55 | 44.79108 | -93.10098 | 34086 ft | 461 kts | 336° |
| 2026-05-06 17:56 | 44.85136 | -93.13172 | 34090 ft | 461 kts | 336° |
| 2026-05-06 17:56 | 44.91135 | -93.16231 | 34099 ft | 462 kts | 336° |
| 2026-05-06 17:57 | 44.97179 | -93.19326 | 34099 ft | 461 kts | 336° |
| 2026-05-06 17:57 | 45.03211 | -93.22420 | 34098 ft | 461 kts | 336° |
| 2026-05-06 17:58 | 45.09245 | -93.25525 | 34089 ft | 462 kts | 336° |
| 2026-05-06 17:58 | 45.15277 | -93.28640 | 34077 ft | 462 kts | 336° |
| 2026-05-06 17:59 | 45.21315 | -93.31762 | 34078 ft | 461 kts | 336° |
| 2026-05-06 17:59 | 45.27346 | -93.34888 | 34084 ft | 462 kts | 336° |
| 2026-05-06 18:00 | 45.33381 | -93.38034 | 34088 ft | 462 kts | 336° |
| 2026-05-06 18:00 | 45.39419 | -93.41165 | 34090 ft | 462 kts | 336° |
| 2026-05-06 18:01 | 45.45455 | -93.44304 | 34088 ft | 462 kts | 336° |
| 2026-05-06 18:01 | 45.51455 | -93.47442 | 34089 ft | 462 kts | 337° |
| 2026-05-06 18:02 | 45.57486 | -93.50604 | 34089 ft | 462 kts | 337° |
| 2026-05-06 18:02 | 45.63523 | -93.53770 | 34087 ft | 462 kts | 337° |
| 2026-05-06 18:03 | 45.69558 | -93.56952 | 34093 ft | 462 kts | 337° |
| 2026-05-06 18:03 | 45.75591 | -93.60132 | 34089 ft | 462 kts | 337° |
| 2026-05-06 18:04 | 45.81626 | -93.63322 | 34097 ft | 462 kts | 337° |
| 2026-05-06 18:04 | 45.87661 | -93.66514 | 34098 ft | 462 kts | 337° |
| 2026-05-06 18:05 | 45.93690 | -93.69715 | 34082 ft | 462 kts | 337° |
| 2026-05-06 18:05 | 45.99722 | -93.72930 | 34072 ft | 462 kts | 337° |
| 2026-05-06 18:06 | 46.05757 | -93.76148 | 34077 ft | 462 kts | 337° |
| 2026-05-06 18:06 | 46.11752 | -93.79355 | 34073 ft | 462 kts | 337° |
| 2026-05-06 18:07 | 46.17778 | -93.82586 | 34062 ft | 462 kts | 337° |
| 2026-05-06 18:07 | 46.23805 | -93.85824 | 34062 ft | 462 kts | 337° |
| 2026-05-06 18:08 | 46.29831 | -93.89070 | 34060 ft | 462 kts | 337° |
| 2026-05-06 18:08 | 46.35849 | -93.92321 | 34051 ft | 460 kts | 338° |
| 2026-05-06 18:09 | 46.41836 | -93.95561 | 34061 ft | 459 kts | 338° |
| 2026-05-06 18:09 | 46.47823 | -93.98807 | 34054 ft | 459 kts | 338° |
| 2026-05-06 18:10 | 46.53788 | -94.02115 | 34053 ft | 459 kts | 337° |
| 2026-05-06 18:10 | 46.59735 | -94.05472 | 34052 ft | 458 kts | 337° |
| 2026-05-06 18:11 | 46.64673 | -94.08270 | 34045 ft | 459 kts | 337° |
| 2026-05-06 18:11 | 46.71620 | -94.12210 | 34031 ft | 458 kts | 337° |
| 2026-05-06 18:12 | 46.77561 | -94.15583 | 34033 ft | 458 kts | 337° |
| 2026-05-06 18:12 | 46.83461 | -94.18946 | 34033 ft | 458 kts | 337° |
| 2026-05-06 18:13 | 46.89400 | -94.22342 | 34041 ft | 458 kts | 337° |
| 2026-05-06 18:13 | 46.95339 | -94.25743 | 34037 ft | 458 kts | 337° |
| 2026-05-06 18:14 | 47.01271 | -94.29143 | 34033 ft | 457 kts | 337° |
| 2026-05-06 18:14 | 47.07193 | -94.32549 | 34038 ft | 457 kts | 337° |
| 2026-05-06 18:15 | 47.13128 | -94.35970 | 34036 ft | 458 kts | 337° |
| 2026-05-06 18:15 | 47.19056 | -94.39395 | 34045 ft | 458 kts | 337° |
| 2026-05-06 18:16 | 47.24982 | -94.42826 | 34033 ft | 457 kts | 337° |
| 2026-05-06 18:16 | 47.30904 | -94.46267 | 34044 ft | 457 kts | 337° |
| 2026-05-06 18:17 | 47.36823 | -94.49712 | 34044 ft | 457 kts | 337° |
| 2026-05-06 18:17 | 47.42703 | -94.53141 | 34047 ft | 457 kts | 337° |
| 2026-05-06 18:18 | 47.48617 | -94.56607 | 34045 ft | 457 kts | 337° |
| 2026-05-06 18:18 | 47.54533 | -94.60069 | 34044 ft | 457 kts | 337° |
| 2026-05-06 18:19 | 47.59487 | -94.62980 | 34045 ft | 457 kts | 337° |
| 2026-05-06 18:19 | 47.65402 | -94.66465 | 34038 ft | 457 kts | 337° |
| 2026-05-06 18:20 | 47.71315 | -94.69948 | 34045 ft | 457 kts | 337° |
| 2026-05-06 18:20 | 47.77187 | -94.73425 | 34032 ft | 457 kts | 337° |
| 2026-05-06 18:21 | 47.83093 | -94.76928 | 34032 ft | 457 kts | 337° |
| 2026-05-06 18:21 | 47.89003 | -94.80444 | 34033 ft | 457 kts | 337° |
| 2026-05-06 18:22 | 47.94903 | -94.83961 | 34037 ft | 457 kts | 337° |
| 2026-05-06 18:22 | 48.00807 | -94.87493 | 34036 ft | 457 kts | 337° |
| 2026-05-06 18:23 | 48.06707 | -94.91024 | 34033 ft | 456 kts | 337° |
| 2026-05-06 18:23 | 48.12603 | -94.94566 | 34034 ft | 456 kts | 337° |
| 2026-05-06 18:24 | 48.18490 | -94.98115 | 34028 ft | 456 kts | 337° |
| 2026-05-06 18:24 | 48.24373 | -95.01662 | 34026 ft | 456 kts | 337° |
| 2026-05-06 18:25 | 48.30251 | -95.05215 | 34023 ft | 455 kts | 337° |
| 2026-05-06 18:25 | 48.36127 | -95.08779 | 34026 ft | 455 kts | 337° |
| 2026-05-06 18:26 | 48.41998 | -95.12351 | 34020 ft | 455 kts | 337° |
| 2026-05-06 18:26 | 48.47835 | -95.15911 | 34029 ft | 455 kts | 337° |
| 2026-05-06 18:27 | 48.53690 | -95.19491 | 34033 ft | 454 kts | 337° |
| 2026-05-06 18:27 | 48.59541 | -95.23074 | 34035 ft | 454 kts | 337° |
| 2026-05-06 18:28 | 48.65396 | -95.26671 | 34040 ft | 454 kts | 337° |
| 2026-05-06 18:28 | 48.71245 | -95.30267 | 33813 ft | 454 kts | 337° |
| 2026-05-06 18:29 | 48.74169 | -95.32073 | 33569 ft | 455 kts | 337° |
| 2026-05-06 18:29 | 48.77099 | -95.33885 | 33320 ft | 455 kts | 337° |
| 2026-05-06 18:29 | 48.80033 | -95.35700 | 33071 ft | 455 kts | 337° |
| 2026-05-06 18:29 | 48.82961 | -95.37515 | 32823 ft | 455 kts | 337° |
| 2026-05-06 18:30 | 48.85891 | -95.39331 | 32576 ft | 454 kts | 337° |
| 2026-05-06 18:30 | 48.88810 | -95.41139 | 32196 ft | 452 kts | 337° |
| 2026-05-06 18:30 | 48.91717 | -95.42945 | 31339 ft | 451 kts | 337° |
| 2026-05-06 18:30 | 48.94622 | -95.44755 | 30560 ft | 449 kts | 337° |
| 2026-05-06 18:31 | 48.97489 | -95.46545 | 29982 ft | 442 kts | 338° |
| 2026-05-06 18:31 | 49.00309 | -95.48307 | 29373 ft | 435 kts | 338° |
| 2026-05-06 18:31 | 49.03097 | -95.50047 | 28762 ft | 430 kts | 338° |
| 2026-05-06 18:31 | 49.05843 | -95.51765 | 28248 ft | 425 kts | 337° |
| 2026-05-06 18:32 | 49.08457 | -95.53859 | 27771 ft | 428 kts | 326° |
| 2026-05-06 18:32 | 49.10756 | -95.56793 | 26921 ft | 432 kts | 317° |
| 2026-05-06 18:32 | 49.12903 | -95.59983 | 26190 ft | 428 kts | 316° |
| 2026-05-06 18:32 | 49.15007 | -95.63160 | 25531 ft | 423 kts | 316° |
| 2026-05-06 18:33 | 49.17091 | -95.66298 | 24883 ft | 417 kts | 316° |
| 2026-05-06 18:33 | 49.19147 | -95.69384 | 24244 ft | 412 kts | 316° |
| 2026-05-06 18:33 | 49.21182 | -95.72434 | 23608 ft | 407 kts | 316° |
| 2026-05-06 18:33 | 49.23188 | -95.75444 | 22982 ft | 402 kts | 316° |
| 2026-05-06 18:34 | 49.25176 | -95.78427 | 22363 ft | 397 kts | 316° |
| 2026-05-06 18:34 | 49.27140 | -95.81374 | 21753 ft | 393 kts | 316° |
| 2026-05-06 18:34 | 49.29083 | -95.84289 | 21147 ft | 389 kts | 316° |
| 2026-05-06 18:34 | 49.31009 | -95.87181 | 20548 ft | 386 kts | 316° |
| 2026-05-06 18:35 | 49.32914 | -95.90046 | 19954 ft | 382 kts | 316° |
| 2026-05-06 18:35 | 49.34776 | -95.92851 | 19370 ft | 378 kts | 316° |
| 2026-05-06 18:35 | 49.36668 | -95.95703 | 18782 ft | 375 kts | 315° |
| 2026-05-06 18:35 | 49.38516 | -95.98493 | 18261 ft | 371 kts | 315° |
| 2026-05-06 18:36 | 49.40346 | -96.01259 | 18062 ft | 368 kts | 315° |
| 2026-05-06 18:36 | 49.42148 | -96.03985 | 18007 ft | 371 kts | 315° |
| 2026-05-06 18:36 | 49.44003 | -96.06793 | 17596 ft | 376 kts | 315° |
| 2026-05-06 18:36 | 49.45874 | -96.09629 | 16764 ft | 379 kts | 315° |
| 2026-05-06 18:37 | 49.47754 | -96.12483 | 15950 ft | 379 kts | 315° |
| 2026-05-06 18:37 | 49.49624 | -96.15326 | 15247 ft | 376 kts | 315° |
| 2026-05-06 18:37 | 49.51501 | -96.18181 | 14581 ft | 371 kts | 315° |
| 2026-05-06 18:37 | 49.53302 | -96.20924 | 13851 ft | 369 kts | 315° |
| 2026-05-06 18:38 | 49.55116 | -96.23689 | 13182 ft | 364 kts | 315° |
| 2026-05-06 18:38 | 49.56914 | -96.26433 | 12503 ft | 360 kts | 315° |
| 2026-05-06 18:38 | 49.58650 | -96.29086 | 11838 ft | 342 kts | 315° |
| 2026-05-06 18:38 | 49.60319 | -96.31640 | 11385 ft | 335 kts | 315° |
| 2026-05-06 18:39 | 49.61941 | -96.34126 | 11084 ft | 323 kts | 315° |
| 2026-05-06 18:39 | 49.63505 | -96.36524 | 10650 ft | 309 kts | 315° |
| 2026-05-06 18:39 | 49.64995 | -96.38807 | 10225 ft | 294 kts | 315° |
| 2026-05-06 18:40 | 49.67779 | -96.43094 | 9180 ft | 278 kts | 315° |
| 2026-05-06 18:40 | 49.69140 | -96.45187 | 8584 ft | 274 kts | 315° |
| 2026-05-06 18:40 | 49.70478 | -96.47247 | 8161 ft | 271 kts | 315° |
| 2026-05-06 18:40 | 49.71814 | -96.49307 | 7736 ft | 271 kts | 315° |
| 2026-05-06 18:41 | 49.73085 | -96.51406 | 7321 ft | 271 kts | 307° |
| 2026-05-06 18:41 | 49.73909 | -96.53982 | 6933 ft | 268 kts | 285° |
| 2026-05-06 18:41 | 49.74223 | -96.56852 | 6515 ft | 267 kts | 277° |
| 2026-05-06 18:41 | 49.74422 | -96.59701 | 6094 ft | 266 kts | 276° |
| 2026-05-06 18:42 | 49.74609 | -96.62502 | 5728 ft | 265 kts | 276° |
| 2026-05-06 18:42 | 49.74805 | -96.65363 | 5312 ft | 263 kts | 276° |
| 2026-05-06 18:42 | 49.74994 | -96.68141 | 4953 ft | 261 kts | 276° |
| 2026-05-06 18:42 | 49.75184 | -96.70878 | 4778 ft | 251 kts | 276° |
| 2026-05-06 18:43 | 49.75359 | -96.73501 | 4618 ft | 240 kts | 276° |
| 2026-05-06 18:43 | 49.75533 | -96.76015 | 4496 ft | 229 kts | 277° |
| 2026-05-06 18:43 | 49.75701 | -96.78411 | 4346 ft | 219 kts | 277° |
| 2026-05-06 18:43 | 49.75868 | -96.80722 | 4197 ft | 214 kts | 277° |
| 2026-05-06 18:44 | 49.76029 | -96.83004 | 4057 ft | 214 kts | 277° |
| 2026-05-06 18:44 | 49.76192 | -96.85292 | 3932 ft | 214 kts | 277° |
| 2026-05-06 18:44 | 49.76353 | -96.87576 | 3813 ft | 214 kts | 277° |
| 2026-05-06 18:44 | 49.76505 | -96.89859 | 3719 ft | 214 kts | 276° |
| 2026-05-06 18:45 | 49.76661 | -96.92145 | 3613 ft | 214 kts | 277° |
| 2026-05-06 18:45 | 49.76821 | -96.94437 | 3519 ft | 214 kts | 277° |
| 2026-05-06 18:45 | 49.76982 | -96.96718 | 3414 ft | 213 kts | 277° |
| 2026-05-06 18:45 | 49.77086 | -96.98226 | 3354 ft | 213 kts | 277° |
| 2026-05-06 18:46 | 49.77291 | -97.01271 | 3215 ft | 212 kts | 277° |
| 2026-05-06 18:46 | 49.77446 | -97.03541 | 3117 ft | 212 kts | 277° |
| 2026-05-06 18:46 | 49.77701 | -97.05773 | 3019 ft | 210 kts | 293° |
| 2026-05-06 18:46 | 49.78458 | -97.07673 | 3026 ft | 207 kts | 311° |
| 2026-05-06 18:47 | 49.79529 | -97.09194 | 3008 ft | 211 kts | 320° |
| 2026-05-06 18:47 | 49.80646 | -97.10650 | 3000 ft | 210 kts | 319° |
| 2026-05-06 18:47 | 49.81724 | -97.12118 | 2838 ft | 201 kts | 317° |
| 2026-05-06 18:47 | 49.82725 | -97.13503 | 2569 ft | 185 kts | 318° |
| 2026-05-06 18:48 | 49.83653 | -97.14768 | 2341 ft | 170 kts | 319° |
| 2026-05-06 18:48 | 49.84504 | -97.15930 | 2113 ft | 154 kts | 319° |
| 2026-05-06 18:48 | 49.85261 | -97.16967 | 1901 ft | 138 kts | 320° |
| 2026-05-06 18:48 | 49.85956 | -97.17914 | 1729 ft | 132 kts | 319° |
| 2026-05-06 18:49 | 49.86646 | -97.18867 | 1558 ft | 134 kts | 319° |
| 2026-05-06 18:49 | 49.87348 | -97.19831 | 1381 ft | 135 kts | 320° |
| 2026-05-06 18:49 | 49.88064 | -97.20800 | 1203 ft | 139 kts | 319° |
| 2026-05-06 18:49 | 49.88778 | -97.21782 | 1003 ft | 136 kts | 319° |
| 2026-05-06 18:50 | 49.89493 | -97.22757 | 837 ft | 137 kts | 320° |
| 2026-05-06 18:50 | 49.90172 | -97.23684 | 793 ft | 114 kts | 318° |
| 2026-05-06 18:50 | 49.90580 | -97.24238 | 795 ft | 43 kts | 319° |
| 2026-05-06 18:50 | 49.90710 | -97.24341 | 795 ft | 14 kts | 32° |
| 2026-05-06 18:51 | 49.90748 | -97.24214 | 793 ft | 12 kts | 78° |
| 2026-05-06 18:51 | 49.90765 | -97.24089 | 793 ft | 11 kts | 78° |
| 2026-05-06 18:51 | 49.90779 | -97.23986 | 795 ft | 9 kts | 78° |
| 2026-05-06 18:51 | 49.90794 | -97.23856 | 794 ft | 18 kts | 79° |
| 2026-05-06 18:52 | 49.90827 | -97.23618 | 792 ft | 24 kts | 77° |
| 2026-05-06 18:52 | 49.90850 | -97.23386 | 792 ft | 19 kts | 104° |
| 2026-05-06 18:52 | 49.90753 | -97.23277 | 792 ft | 17 kts | 160° |
| 2026-05-06 18:52 | 49.90644 | -97.23306 | 792 ft | 16 kts | 198° |
| 2026-05-06 18:53 | 49.90533 | -97.23367 | 792 ft | 17 kts | 199° |
| 2026-05-06 18:53 | 49.90422 | -97.23427 | 792 ft | 16 kts | 199° |
| 2026-05-06 18:53 | 49.90317 | -97.23455 | 792 ft | 15 kts | 163° |
| 2026-05-06 18:53 | 49.90243 | -97.23363 | 792 ft | 13 kts | 138° |
| 2026-05-06 18:54 | 49.90175 | -97.23270 | 792 ft | 13 kts | 138° |
| 2026-05-06 18:54 | 49.90111 | -97.23182 | 792 ft | 12 kts | 138° |
| 2026-05-06 18:54 | 49.90041 | -97.23086 | 792 ft | 16 kts | 138° |
| 2026-05-06 18:54 | 49.89944 | -97.22954 | 792 ft | 21 kts | 139° |
| 2026-05-06 18:55 | 49.89835 | -97.22772 | 792 ft | 25 kts | 129° |
| 2026-05-06 18:55 | 49.89718 | -97.22559 | 792 ft | 25 kts | 130° |
| 2026-05-06 18:55 | 49.89661 | -97.22402 | 792 ft | 15 kts | 99° |
| 2026-05-06 18:55 | 49.89655 | -97.22262 | 792 ft | 7 kts | 83° |
| 2026-05-06 18:56 | 49.89677 | -97.22243 | 792 ft | 3 kts | 4° |
| 2026-05-06 18:56 | 49.89694 | -97.22242 | 792 ft | 3 kts | 1° |
| 2026-05-06 18:56 | 49.89709 | -97.22241 | 792 ft | 0 kts | 3° |